Terminal Aerodrome Forecast
Issued by NWS

Home | Current Version | Previous Version | Text Only | Print | Product List | Glossary On
Versions: 1 2 3 4 5 6 7 8 9 10 11 12 13
000
FTUS42 KMLB 161100
TAFLEE
TAF
KLEE 161126Z 1612/1712 30005KT P6SM FEW080 FEW120 BKN200
     FM161400 27005KT P6SM VCSH SCT030 BKN200
     FM161700 28008KT P6SM VCTS SCT040CB BKN080
      TEMPO 1617/1620 3SM TSRA BKN035CB OVC050
     FM170000 26004KT P6SM SCT080 OVC150=

USA.gov is the U.S. government's official web portal to all federal, state and local government web resources and services.